sensor_id;sensor_type;location;lat;lon;timestamp;P1;durP1;ratioP1;P2;durP2;ratioP2
14858;SDS011;7521;51.700;6.874;2023-03-23T00:02:55;5.17;;;3.20;;
14858;SDS011;7521;51.700;6.874;2023-03-23T00:06:00;5.65;;;3.45;;
14858;SDS011;7521;51.700;6.874;2023-03-23T00:09:14;5.10;;;3.07;;
14858;SDS011;7521;51.700;6.874;2023-03-23T00:12:23;5.07;;;3.07;;
14858;SDS011;7521;51.700;6.874;2023-03-23T00:15:38;6.97;;;3.23;;
14858;SDS011;7521;51.700;6.874;2023-03-23T00:18:46;5.70;;;2.80;;
14858;SDS011;7521;51.700;6.874;2023-03-23T00:21:52;5.20;;;2.90;;
14858;SDS011;7521;51.700;6.874;2023-03-23T00:24:58;3.60;;;2.80;;
14858;SDS011;7521;51.700;6.874;2023-03-23T00:28:03;4.70;;;2.85;;
14858;SDS011;7521;51.700;6.874;2023-03-23T00:31:09;3.50;;;2.70;;
14858;SDS011;7521;51.700;6.874;2023-03-23T00:34:15;4.37;;;2.70;;
14858;SDS011;7521;51.700;6.874;2023-03-23T00:37:24;3.47;;;2.70;;
14858;SDS011;7521;51.700;6.874;2023-03-23T00:40:29;4.30;;;2.53;;
14858;SDS011;7521;51.700;6.874;2023-03-23T00:43:35;3.00;;;2.70;;
14858;SDS011;7521;51.700;6.874;2023-03-23T00:46:40;3.00;;;2.37;;
14858;SDS011;7521;51.700;6.874;2023-03-23T00:49:49;4.17;;;2.67;;
14858;SDS011;7521;51.700;6.874;2023-03-23T00:52:57;4.57;;;3.07;;
14858;SDS011;7521;51.700;6.874;2023-03-23T00:56:02;4.53;;;2.53;;
14858;SDS011;7521;51.700;6.874;2023-03-23T00:59:08;5.97;;;2.60;;
14858;SDS011;7521;51.700;6.874;2023-03-23T01:02:13;3.97;;;2.70;;
14858;SDS011;7521;51.700;6.874;2023-03-23T01:05:18;3.88;;;2.20;;
14858;SDS011;7521;51.700;6.874;2023-03-23T01:08:23;5.60;;;2.70;;
14858;SDS011;7521;51.700;6.874;2023-03-23T01:11:29;7.13;;;3.07;;
14858;SDS011;7521;51.700;6.874;2023-03-23T01:14:34;3.95;;;2.45;;
14858;SDS011;7521;51.700;6.874;2023-03-23T01:17:39;3.67;;;2.83;;
14858;SDS011;7521;51.700;6.874;2023-03-23T01:20:45;3.80;;;2.63;;
14858;SDS011;7521;51.700;6.874;2023-03-23T01:23:50;6.72;;;3.03;;
14858;SDS011;7521;51.700;6.874;2023-03-23T01:26:55;5.07;;;2.90;;
14858;SDS011;7521;51.700;6.874;2023-03-23T01:30:01;4.95;;;3.13;;
14858;SDS011;7521;51.700;6.874;2023-03-23T01:33:06;5.00;;;2.90;;
14858;SDS011;7521;51.700;6.874;2023-03-23T01:36:15;7.15;;;3.78;;
14858;SDS011;7521;51.700;6.874;2023-03-23T01:39:21;7.80;;;3.70;;
14858;SDS011;7521;51.700;6.874;2023-03-23T01:42:29;6.82;;;3.88;;
14858;SDS011;7521;51.700;6.874;2023-03-23T01:45:35;6.47;;;3.60;;
14858;SDS011;7521;51.700;6.874;2023-03-23T01:48:40;4.67;;;3.10;;
14858;SDS011;7521;51.700;6.874;2023-03-23T01:51:47;5.47;;;3.60;;
14858;SDS011;7521;51.700;6.874;2023-03-23T01:54:53;6.13;;;3.70;;
14858;SDS011;7521;51.700;6.874;2023-03-23T01:58:00;6.70;;;3.23;;
14858;SDS011;7521;51.700;6.874;2023-03-23T02:01:06;6.40;;;3.40;;
14858;SDS011;7521;51.700;6.874;2023-03-23T02:04:13;7.77;;;3.37;;
14858;SDS011;7521;51.700;6.874;2023-03-23T02:07:20;6.10;;;3.50;;
14858;SDS011;7521;51.700;6.874;2023-03-23T02:10:25;5.17;;;3.07;;
14858;SDS011;7521;51.700;6.874;2023-03-23T02:13:30;5.07;;;2.77;;
14858;SDS011;7521;51.700;6.874;2023-03-23T02:26:38;7.33;;;3.63;;
14858;SDS011;7521;51.700;6.874;2023-03-23T02:39:44;8.13;;;3.35;;
14858;SDS011;7521;51.700;6.874;2023-03-23T02:42:51;5.67;;;3.43;;
14858;SDS011;7521;51.700;6.874;2023-03-23T02:45:58;4.60;;;3.10;;
14858;SDS011;7521;51.700;6.874;2023-03-23T02:49:03;7.47;;;3.53;;
14858;SDS011;7521;51.700;6.874;2023-03-23T02:52:12;7.93;;;3.40;;
14858;SDS011;7521;51.700;6.874;2023-03-23T02:55:21;7.10;;;3.63;;
14858;SDS011;7521;51.700;6.874;2023-03-23T02:58:29;4.73;;;2.93;;
14858;SDS011;7521;51.700;6.874;2023-03-23T03:04:45;6.57;;;3.50;;
14858;SDS011;7521;51.700;6.874;2023-03-23T03:07:59;5.43;;;3.17;;
14858;SDS011;7521;51.700;6.874;2023-03-23T03:11:09;6.07;;;3.77;;
14858;SDS011;7521;51.700;6.874;2023-03-23T03:14:19;6.30;;;3.73;;
14858;SDS011;7521;51.700;6.874;2023-03-23T03:17:26;4.77;;;3.43;;
14858;SDS011;7521;51.700;6.874;2023-03-23T03:20:33;6.63;;;4.00;;
14858;SDS011;7521;51.700;6.874;2023-03-23T03:23:41;4.57;;;3.50;;
14858;SDS011;7521;51.700;6.874;2023-03-23T03:26:48;4.80;;;3.77;;
14858;SDS011;7521;51.700;6.874;2023-03-23T03:29:56;5.57;;;3.53;;
14858;SDS011;7521;51.700;6.874;2023-03-23T03:33:03;7.03;;;3.63;;
14858;SDS011;7521;51.700;6.874;2023-03-23T03:36:14;4.70;;;3.60;;
14858;SDS011;7521;51.700;6.874;2023-03-23T03:39:20;5.93;;;4.07;;
14858;SDS011;7521;51.700;6.874;2023-03-23T03:42:26;4.40;;;3.50;;
14858;SDS011;7521;51.700;6.874;2023-03-23T03:45:31;6.07;;;3.50;;
14858;SDS011;7521;51.700;6.874;2023-03-23T03:48:36;5.25;;;3.53;;
14858;SDS011;7521;51.700;6.874;2023-03-23T03:51:42;6.60;;;3.40;;
14858;SDS011;7521;51.700;6.874;2023-03-23T03:54:47;5.23;;;3.60;;
14858;SDS011;7521;51.700;6.874;2023-03-23T03:57:52;8.17;;;4.17;;
14858;SDS011;7521;51.700;6.874;2023-03-23T04:00:58;7.57;;;3.85;;
14858;SDS011;7521;51.700;6.874;2023-03-23T04:04:03;6.40;;;3.90;;
14858;SDS011;7521;51.700;6.874;2023-03-23T04:07:11;7.13;;;4.23;;
14858;SDS011;7521;51.700;6.874;2023-03-23T04:10:19;8.37;;;3.83;;
14858;SDS011;7521;51.700;6.874;2023-03-23T04:13:26;4.97;;;3.73;;
14858;SDS011;7521;51.700;6.874;2023-03-23T04:16:31;6.57;;;4.27;;
14858;SDS011;7521;51.700;6.874;2023-03-23T04:19:39;8.23;;;4.43;;
14858;SDS011;7521;51.700;6.874;2023-03-23T04:22:44;7.33;;;4.20;;
14858;SDS011;7521;51.700;6.874;2023-03-23T04:25:50;6.70;;;4.17;;
14858;SDS011;7521;51.700;6.874;2023-03-23T04:28:57;8.90;;;3.50;;
14858;SDS011;7521;51.700;6.874;2023-03-23T04:32:03;5.50;;;3.50;;
14858;SDS011;7521;51.700;6.874;2023-03-23T04:35:10;4.57;;;2.85;;
14858;SDS011;7521;51.700;6.874;2023-03-23T04:38:16;5.33;;;2.80;;
14858;SDS011;7521;51.700;6.874;2023-03-23T04:41:22;5.03;;;2.87;;
14858;SDS011;7521;51.700;6.874;2023-03-23T04:44:27;3.60;;;2.63;;
14858;SDS011;7521;51.700;6.874;2023-03-23T04:47:34;3.77;;;2.20;;
14858;SDS011;7521;51.700;6.874;2023-03-23T04:50:44;5.20;;;2.90;;
14858;SDS011;7521;51.700;6.874;2023-03-23T04:53:50;4.32;;;2.38;;
14858;SDS011;7521;51.700;6.874;2023-03-23T04:56:55;4.17;;;2.33;;
14858;SDS011;7521;51.700;6.874;2023-03-23T05:00:03;3.72;;;1.95;;
14858;SDS011;7521;51.700;6.874;2023-03-23T05:03:13;4.83;;;2.43;;
14858;SDS011;7521;51.700;6.874;2023-03-23T05:06:21;3.07;;;2.33;;
14858;SDS011;7521;51.700;6.874;2023-03-23T05:09:26;2.87;;;2.20;;
14858;SDS011;7521;51.700;6.874;2023-03-23T05:12:34;3.55;;;2.30;;
14858;SDS011;7521;51.700;6.874;2023-03-23T05:15:39;2.63;;;2.13;;
14858;SDS011;7521;51.700;6.874;2023-03-23T05:18:44;3.67;;;2.20;;
14858;SDS011;7521;51.700;6.874;2023-03-23T05:21:56;2.50;;;2.30;;
14858;SDS011;7521;51.700;6.874;2023-03-23T05:25:10;3.97;;;2.23;;
14858;SDS011;7521;51.700;6.874;2023-03-23T05:28:15;3.00;;;2.10;;
14858;SDS011;7521;51.700;6.874;2023-03-23T05:31:21;3.13;;;2.20;;
14858;SDS011;7521;51.700;6.874;2023-03-23T05:34:26;3.33;;;2.00;;
14858;SDS011;7521;51.700;6.874;2023-03-23T05:37:32;3.17;;;2.27;;
14858;SDS011;7521;51.700;6.874;2023-03-23T05:40:37;4.93;;;2.27;;
14858;SDS011;7521;51.700;6.874;2023-03-23T05:43:42;3.47;;;1.93;;
14858;SDS011;7521;51.700;6.874;2023-03-23T05:46:48;3.67;;;2.33;;
14858;SDS011;7521;51.700;6.874;2023-03-23T05:49:53;5.33;;;2.43;;
14858;SDS011;7521;51.700;6.874;2023-03-23T05:52:58;3.33;;;1.92;;
14858;SDS011;7521;51.700;6.874;2023-03-23T05:56:03;3.53;;;2.42;;
14858;SDS011;7521;51.700;6.874;2023-03-23T05:59:09;5.83;;;2.97;;
14858;SDS011;7521;51.700;6.874;2023-03-23T06:02:15;3.63;;;2.47;;
14858;SDS011;7521;51.700;6.874;2023-03-23T06:05:20;3.15;;;2.00;;
14858;SDS011;7521;51.700;6.874;2023-03-23T06:08:27;5.87;;;2.23;;
14858;SDS011;7521;51.700;6.874;2023-03-23T06:11:32;3.72;;;2.33;;
14858;SDS011;7521;51.700;6.874;2023-03-23T06:14:38;5.43;;;2.47;;
14858;SDS011;7521;51.700;6.874;2023-03-23T06:17:43;4.70;;;2.40;;
14858;SDS011;7521;51.700;6.874;2023-03-23T06:20:49;4.82;;;2.40;;
14858;SDS011;7521;51.700;6.874;2023-03-23T06:23:54;5.43;;;2.63;;
14858;SDS011;7521;51.700;6.874;2023-03-23T06:27:00;6.93;;;2.70;;
14858;SDS011;7521;51.700;6.874;2023-03-23T06:30:06;4.80;;;2.50;;
14858;SDS011;7521;51.700;6.874;2023-03-23T06:33:14;4.33;;;2.00;;
14858;SDS011;7521;51.700;6.874;2023-03-23T06:36:20;5.30;;;2.47;;
14858;SDS011;7521;51.700;6.874;2023-03-23T06:39:25;6.03;;;2.07;;
14858;SDS011;7521;51.700;6.874;2023-03-23T06:42:30;4.65;;;2.33;;
14858;SDS011;7521;51.700;6.874;2023-03-23T06:45:35;5.57;;;2.40;;
14858;SDS011;7521;51.700;6.874;2023-03-23T06:48:41;2.85;;;1.80;;
14858;SDS011;7521;51.700;6.874;2023-03-23T06:51:46;5.23;;;2.00;;
14858;SDS011;7521;51.700;6.874;2023-03-23T06:54:51;6.78;;;2.38;;
14858;SDS011;7521;51.700;6.874;2023-03-23T06:57:56;5.30;;;2.20;;
14858;SDS011;7521;51.700;6.874;2023-03-23T07:01:04;4.47;;;2.17;;
14858;SDS011;7521;51.700;6.874;2023-03-23T07:04:09;5.37;;;2.03;;
14858;SDS011;7521;51.700;6.874;2023-03-23T07:07:15;7.00;;;2.50;;
14858;SDS011;7521;51.700;6.874;2023-03-23T07:10:23;6.07;;;1.90;;
14858;SDS011;7521;51.700;6.874;2023-03-23T07:13:28;5.57;;;2.07;;
14858;SDS011;7521;51.700;6.874;2023-03-23T07:16:33;6.95;;;2.25;;
14858;SDS011;7521;51.700;6.874;2023-03-23T07:19:38;4.88;;;1.90;;
14858;SDS011;7521;51.700;6.874;2023-03-23T07:22:44;4.87;;;2.00;;
14858;SDS011;7521;51.700;6.874;2023-03-23T07:25:49;7.13;;;2.27;;
14858;SDS011;7521;51.700;6.874;2023-03-23T07:28:54;5.65;;;1.92;;
14858;SDS011;7521;51.700;6.874;2023-03-23T07:31:59;6.20;;;2.20;;
14858;SDS011;7521;51.700;6.874;2023-03-23T07:35:04;6.65;;;2.05;;
14858;SDS011;7521;51.700;6.874;2023-03-23T07:38:10;4.67;;;1.90;;
14858;SDS011;7521;51.700;6.874;2023-03-23T07:41:15;7.60;;;2.17;;
14858;SDS011;7521;51.700;6.874;2023-03-23T07:44:20;5.43;;;2.15;;
14858;SDS011;7521;51.700;6.874;2023-03-23T07:47:25;4.03;;;1.90;;
14858;SDS011;7521;51.700;6.874;2023-03-23T07:50:31;4.57;;;1.80;;
14858;SDS011;7521;51.700;6.874;2023-03-23T07:53:37;2.67;;;1.77;;
14858;SDS011;7521;51.700;6.874;2023-03-23T07:56:43;4.73;;;1.90;;
14858;SDS011;7521;51.700;6.874;2023-03-23T07:59:50;4.13;;;1.93;;
14858;SDS011;7521;51.700;6.874;2023-03-23T08:02:56;5.73;;;1.93;;
14858;SDS011;7521;51.700;6.874;2023-03-23T08:06:05;5.37;;;2.03;;
14858;SDS011;7521;51.700;6.874;2023-03-23T08:09:10;5.63;;;2.40;;
14858;SDS011;7521;51.700;6.874;2023-03-23T08:12:16;3.80;;;1.90;;
14858;SDS011;7521;51.700;6.874;2023-03-23T08:15:22;5.03;;;2.15;;
14858;SDS011;7521;51.700;6.874;2023-03-23T08:18:27;5.67;;;1.70;;
14858;SDS011;7521;51.700;6.874;2023-03-23T08:21:33;6.63;;;2.27;;
14858;SDS011;7521;51.700;6.874;2023-03-23T08:24:38;7.37;;;1.93;;
14858;SDS011;7521;51.700;6.874;2023-03-23T08:27:43;4.13;;;2.03;;
14858;SDS011;7521;51.700;6.874;2023-03-23T08:30:49;7.30;;;2.23;;
14858;SDS011;7521;51.700;6.874;2023-03-23T08:33:54;6.50;;;2.00;;
14858;SDS011;7521;51.700;6.874;2023-03-23T08:37:01;8.07;;;2.60;;
14858;SDS011;7521;51.700;6.874;2023-03-23T08:40:07;4.82;;;2.22;;
14858;SDS011;7521;51.700;6.874;2023-03-23T08:43:14;4.40;;;2.13;;
14858;SDS011;7521;51.700;6.874;2023-03-23T08:46:20;6.80;;;2.17;;
14858;SDS011;7521;51.700;6.874;2023-03-23T08:49:25;5.22;;;2.25;;
14858;SDS011;7521;51.700;6.874;2023-03-23T08:52:33;4.87;;;2.43;;
14858;SDS011;7521;51.700;6.874;2023-03-23T08:55:44;7.13;;;2.23;;
14858;SDS011;7521;51.700;6.874;2023-03-23T08:58:55;6.53;;;2.40;;
14858;SDS011;7521;51.700;6.874;2023-03-23T09:02:03;7.00;;;2.20;;
14858;SDS011;7521;51.700;6.874;2023-03-23T09:05:10;6.77;;;2.10;;
14858;SDS011;7521;51.700;6.874;2023-03-23T09:08:15;6.27;;;2.20;;
14858;SDS011;7521;51.700;6.874;2023-03-23T09:11:21;5.47;;;1.97;;
14858;SDS011;7521;51.700;6.874;2023-03-23T09:14:26;7.13;;;2.53;;
14858;SDS011;7521;51.700;6.874;2023-03-23T09:17:31;7.87;;;2.20;;
14858;SDS011;7521;51.700;6.874;2023-03-23T09:20:36;6.35;;;2.25;;
14858;SDS011;7521;51.700;6.874;2023-03-23T09:23:42;2.50;;;0.83;;
14858;SDS011;7521;51.700;6.874;2023-03-23T09:26:49;3.27;;;0.60;;
14858;SDS011;7521;51.700;6.874;2023-03-23T09:29:54;5.38;;;0.68;;
14858;SDS011;7521;51.700;6.874;2023-03-23T09:33:00;3.33;;;0.90;;
14858;SDS011;7521;51.700;6.874;2023-03-23T09:36:06;3.47;;;1.10;;
14858;SDS011;7521;51.700;6.874;2023-03-23T09:39:13;1.60;;;0.57;;
14858;SDS011;7521;51.700;6.874;2023-03-23T09:42:22;4.10;;;1.30;;
14858;SDS011;7521;51.700;6.874;2023-03-23T09:45:49;3.03;;;1.23;;
14858;SDS011;7521;51.700;6.874;2023-03-23T09:49:00;4.33;;;0.67;;
14858;SDS011;7521;51.700;6.874;2023-03-23T09:52:12;3.90;;;1.00;;
14858;SDS011;7521;51.700;6.874;2023-03-23T09:55:18;3.63;;;1.20;;
14858;SDS011;7521;51.700;6.874;2023-03-23T09:58:29;5.23;;;1.10;;
14858;SDS011;7521;51.700;6.874;2023-03-23T10:01:38;4.60;;;0.83;;
14858;SDS011;7521;51.700;6.874;2023-03-23T10:04:54;3.30;;;0.83;;
14858;SDS011;7521;51.700;6.874;2023-03-23T10:08:01;3.60;;;1.23;;
14858;SDS011;7521;51.700;6.874;2023-03-23T10:11:12;3.90;;;0.93;;
14858;SDS011;7521;51.700;6.874;2023-03-23T10:14:25;4.37;;;1.00;;
14858;SDS011;7521;51.700;6.874;2023-03-23T10:17:35;4.03;;;1.00;;
14858;SDS011;7521;51.700;6.874;2023-03-23T10:20:43;4.93;;;1.20;;
14858;SDS011;7521;51.700;6.874;2023-03-23T10:23:52;2.50;;;0.63;;
14858;SDS011;7521;51.700;6.874;2023-03-23T10:30:30;5.93;;;1.27;;
14858;SDS011;7521;51.700;6.874;2023-03-23T10:33:38;2.37;;;1.07;;
14858;SDS011;7521;51.700;6.874;2023-03-23T10:36:55;4.20;;;1.00;;
14858;SDS011;7521;51.700;6.874;2023-03-23T10:40:03;4.30;;;1.70;;
14858;SDS011;7521;51.700;6.874;2023-03-23T10:43:14;4.33;;;1.40;;
14858;SDS011;7521;51.700;6.874;2023-03-23T10:52:52;3.77;;;1.10;;
14858;SDS011;7521;51.700;6.874;2023-03-23T10:56:00;1.87;;;0.93;;
14858;SDS011;7521;51.700;6.874;2023-03-23T10:59:25;2.03;;;0.60;;
14858;SDS011;7521;51.700;6.874;2023-03-23T11:02:40;3.90;;;0.87;;
14858;SDS011;7521;51.700;6.874;2023-03-23T11:05:52;2.50;;;0.90;;
14858;SDS011;7521;51.700;6.874;2023-03-23T11:09:00;2.57;;;0.90;;
14858;SDS011;7521;51.700;6.874;2023-03-23T11:12:15;1.73;;;0.70;;
14858;SDS011;7521;51.700;6.874;2023-03-23T11:15:23;3.67;;;1.00;;
14858;SDS011;7521;51.700;6.874;2023-03-23T11:18:36;4.53;;;0.90;;
14858;SDS011;7521;51.700;6.874;2023-03-23T11:21:45;2.07;;;0.80;;
14858;SDS011;7521;51.700;6.874;2023-03-23T11:24:53;4.87;;;1.07;;
14858;SDS011;7521;51.700;6.874;2023-03-23T11:27:59;1.63;;;0.87;;
14858;SDS011;7521;51.700;6.874;2023-03-23T11:31:23;3.50;;;0.80;;
14858;SDS011;7521;51.700;6.874;2023-03-23T11:34:32;4.03;;;1.00;;
14858;SDS011;7521;51.700;6.874;2023-03-23T11:37:42;5.37;;;1.13;;
14858;SDS011;7521;51.700;6.874;2023-03-23T11:40:49;2.43;;;0.93;;
14858;SDS011;7521;51.700;6.874;2023-03-23T11:43:57;1.93;;;0.70;;
14858;SDS011;7521;51.700;6.874;2023-03-23T11:57:20;2.03;;;1.00;;
14858;SDS011;7521;51.700;6.874;2023-03-23T12:00:25;4.07;;;1.30;;
14858;SDS011;7521;51.700;6.874;2023-03-23T12:06:51;2.90;;;0.97;;
14858;SDS011;7521;51.700;6.874;2023-03-23T12:10:09;3.47;;;1.10;;
14858;SDS011;7521;51.700;6.874;2023-03-23T12:29:24;2.67;;;0.87;;
14858;SDS011;7521;51.700;6.874;2023-03-23T12:39:30;3.50;;;1.20;;
14858;SDS011;7521;51.700;6.874;2023-03-23T12:46:10;2.03;;;1.10;;
14858;SDS011;7521;51.700;6.874;2023-03-23T12:52:35;2.38;;;1.02;;
14858;SDS011;7521;51.700;6.874;2023-03-23T12:55:49;1.93;;;0.80;;
14858;SDS011;7521;51.700;6.874;2023-03-23T12:59:03;3.73;;;1.30;;
14858;SDS011;7521;51.700;6.874;2023-03-23T13:02:19;1.43;;;0.80;;
14858;SDS011;7521;51.700;6.874;2023-03-23T13:05:46;2.10;;;0.90;;
14858;SDS011;7521;51.700;6.874;2023-03-23T13:09:14;2.73;;;1.20;;
14858;SDS011;7521;51.700;6.874;2023-03-23T13:12:20;2.63;;;1.00;;
14858;SDS011;7521;51.700;6.874;2023-03-23T13:21:42;2.07;;;1.20;;
14858;SDS011;7521;51.700;6.874;2023-03-23T13:24:53;1.13;;;0.80;;
14858;SDS011;7521;51.700;6.874;2023-03-23T13:27:59;2.37;;;1.03;;
14858;SDS011;7521;51.700;6.874;2023-03-23T13:31:12;2.37;;;1.00;;
14858;SDS011;7521;51.700;6.874;2023-03-23T13:34:19;5.00;;;1.57;;
14858;SDS011;7521;51.700;6.874;2023-03-23T13:37:25;3.67;;;1.30;;
14858;SDS011;7521;51.700;6.874;2023-03-23T13:40:31;2.70;;;1.23;;
14858;SDS011;7521;51.700;6.874;2023-03-23T13:43:37;3.43;;;1.40;;
14858;SDS011;7521;51.700;6.874;2023-03-23T13:46:46;3.73;;;1.60;;
14858;SDS011;7521;51.700;6.874;2023-03-23T13:53:15;2.67;;;1.30;;
14858;SDS011;7521;51.700;6.874;2023-03-23T13:56:36;3.30;;;1.40;;
14858;SDS011;7521;51.700;6.874;2023-03-23T13:59:48;3.30;;;1.53;;
14858;SDS011;7521;51.700;6.874;2023-03-23T14:03:01;2.93;;;1.30;;
14858;SDS011;7521;51.700;6.874;2023-03-23T14:06:12;3.87;;;1.57;;
14858;SDS011;7521;51.700;6.874;2023-03-23T14:09:26;5.83;;;1.80;;
14858;SDS011;7521;51.700;6.874;2023-03-23T14:12:32;3.10;;;1.70;;
14858;SDS011;7521;51.700;6.874;2023-03-23T14:15:43;6.47;;;2.10;;
14858;SDS011;7521;51.700;6.874;2023-03-23T14:18:53;6.23;;;2.20;;
14858;SDS011;7521;51.700;6.874;2023-03-23T14:22:02;4.33;;;2.03;;
14858;SDS011;7521;51.700;6.874;2023-03-23T14:25:14;6.07;;;2.17;;
14858;SDS011;7521;51.700;6.874;2023-03-23T14:28:20;5.73;;;2.30;;
14858;SDS011;7521;51.700;6.874;2023-03-23T14:31:27;4.73;;;1.97;;
14858;SDS011;7521;51.700;6.874;2023-03-23T14:34:32;5.87;;;1.93;;
14858;SDS011;7521;51.700;6.874;2023-03-23T14:37:38;5.67;;;1.93;;
14858;SDS011;7521;51.700;6.874;2023-03-23T14:40:43;5.67;;;2.13;;
14858;SDS011;7521;51.700;6.874;2023-03-23T14:43:48;5.23;;;2.23;;
14858;SDS011;7521;51.700;6.874;2023-03-23T14:46:54;4.73;;;2.00;;
14858;SDS011;7521;51.700;6.874;2023-03-23T14:50:01;4.97;;;1.80;;
14858;SDS011;7521;51.700;6.874;2023-03-23T14:53:40;4.23;;;1.80;;
14858;SDS011;7521;51.700;6.874;2023-03-23T14:56:38;4.73;;;1.60;;
14858;SDS011;7521;51.700;6.874;2023-03-23T14:59:47;5.07;;;1.93;;
14858;SDS011;7521;51.700;6.874;2023-03-23T15:02:53;7.17;;;2.13;;
14858;SDS011;7521;51.700;6.874;2023-03-23T15:06:02;6.30;;;2.10;;
14858;SDS011;7521;51.700;6.874;2023-03-23T15:09:13;5.30;;;1.70;;
14858;SDS011;7521;51.700;6.874;2023-03-23T15:12:22;3.60;;;1.70;;
14858;SDS011;7521;51.700;6.874;2023-03-23T15:15:29;3.63;;;1.50;;
14858;SDS011;7521;51.700;6.874;2023-03-23T15:18:36;5.37;;;1.80;;
14858;SDS011;7521;51.700;6.874;2023-03-23T15:21:49;2.10;;;1.20;;
14858;SDS011;7521;51.700;6.874;2023-03-23T15:28:19;4.03;;;1.57;;
14858;SDS011;7521;51.700;6.874;2023-03-23T15:31:25;5.20;;;1.93;;
14858;SDS011;7521;51.700;6.874;2023-03-23T15:34:32;5.90;;;1.83;;
14858;SDS011;7521;51.700;6.874;2023-03-23T15:37:41;9.07;;;2.03;;
14858;SDS011;7521;51.700;6.874;2023-03-23T15:40:51;5.63;;;1.93;;
14858;SDS011;7521;51.700;6.874;2023-03-23T15:43:58;7.35;;;1.80;;
14858;SDS011;7521;51.700;6.874;2023-03-23T15:50:19;4.70;;;1.60;;
14858;SDS011;7521;51.700;6.874;2023-03-23T15:56:32;6.53;;;1.90;;
14858;SDS011;7521;51.700;6.874;2023-03-23T15:59:37;7.55;;;1.75;;
14858;SDS011;7521;51.700;6.874;2023-03-23T16:02:44;5.40;;;1.40;;
14858;SDS011;7521;51.700;6.874;2023-03-23T16:05:50;3.83;;;1.10;;
14858;SDS011;7521;51.700;6.874;2023-03-23T16:08:55;6.73;;;1.70;;
14858;SDS011;7521;51.700;6.874;2023-03-23T16:12:00;4.27;;;1.07;;
14858;SDS011;7521;51.700;6.874;2023-03-23T16:15:06;2.83;;;0.90;;
14858;SDS011;7521;51.700;6.874;2023-03-23T16:18:17;2.03;;;1.00;;
14858;SDS011;7521;51.700;6.874;2023-03-23T16:21:22;2.23;;;1.00;;
14858;SDS011;7521;51.700;6.874;2023-03-23T16:24:28;1.60;;;0.80;;
14858;SDS011;7521;51.700;6.874;2023-03-23T16:27:33;3.57;;;0.93;;
14858;SDS011;7521;51.700;6.874;2023-03-23T16:30:38;3.55;;;1.38;;
14858;SDS011;7521;51.700;6.874;2023-03-23T16:33:43;8.13;;;2.20;;
14858;SDS011;7521;51.700;6.874;2023-03-23T16:36:49;5.27;;;1.80;;
14858;SDS011;7521;51.700;6.874;2023-03-23T16:39:54;8.10;;;2.33;;
14858;SDS011;7521;51.700;6.874;2023-03-23T16:42:59;3.78;;;1.63;;
14858;SDS011;7521;51.700;6.874;2023-03-23T16:46:08;6.27;;;1.60;;
14858;SDS011;7521;51.700;6.874;2023-03-23T16:49:15;6.93;;;2.00;;
14858;SDS011;7521;51.700;6.874;2023-03-23T16:52:21;6.85;;;2.42;;
14858;SDS011;7521;51.700;6.874;2023-03-23T16:55:26;8.67;;;2.40;;
14858;SDS011;7521;51.700;6.874;2023-03-23T16:58:31;7.40;;;2.00;;
14858;SDS011;7521;51.700;6.874;2023-03-23T17:01:37;5.32;;;1.92;;
14858;SDS011;7521;51.700;6.874;2023-03-23T17:04:43;8.07;;;2.30;;
14858;SDS011;7521;51.700;6.874;2023-03-23T17:07:48;6.47;;;2.20;;
14858;SDS011;7521;51.700;6.874;2023-03-23T17:10:54;5.97;;;1.90;;
14858;SDS011;7521;51.700;6.874;2023-03-23T17:13:59;8.80;;;2.30;;
14858;SDS011;7521;51.700;6.874;2023-03-23T17:17:05;5.67;;;2.20;;
14858;SDS011;7521;51.700;6.874;2023-03-23T17:20:11;5.23;;;1.90;;
14858;SDS011;7521;51.700;6.874;2023-03-23T17:23:17;6.33;;;2.10;;
14858;SDS011;7521;51.700;6.874;2023-03-23T17:26:22;5.50;;;2.20;;
14858;SDS011;7521;51.700;6.874;2023-03-23T17:29:27;5.15;;;2.10;;
14858;SDS011;7521;51.700;6.874;2023-03-23T17:32:33;6.75;;;2.10;;
14858;SDS011;7521;51.700;6.874;2023-03-23T17:35:38;3.87;;;2.13;;
14858;SDS011;7521;51.700;6.874;2023-03-23T17:38:43;7.53;;;2.07;;
14858;SDS011;7521;51.700;6.874;2023-03-23T17:41:52;4.53;;;1.70;;
14858;SDS011;7521;51.700;6.874;2023-03-23T17:44:57;8.10;;;2.50;;
14858;SDS011;7521;51.700;6.874;2023-03-23T17:48:02;4.23;;;2.03;;
14858;SDS011;7521;51.700;6.874;2023-03-23T17:51:11;5.23;;;2.50;;
14858;SDS011;7521;51.700;6.874;2023-03-23T17:54:16;9.33;;;2.87;;
14858;SDS011;7521;51.700;6.874;2023-03-23T17:57:21;6.18;;;2.75;;
14858;SDS011;7521;51.700;6.874;2023-03-23T18:00:26;9.38;;;2.67;;
14858;SDS011;7521;51.700;6.874;2023-03-23T18:03:32;5.45;;;2.50;;
14858;SDS011;7521;51.700;6.874;2023-03-23T18:06:37;12.03;;;3.07;;
14858;SDS011;7521;51.700;6.874;2023-03-23T18:09:45;8.20;;;3.20;;
14858;SDS011;7521;51.700;6.874;2023-03-23T18:12:50;11.63;;;3.67;;
14858;SDS011;7521;51.700;6.874;2023-03-23T18:15:56;8.43;;;3.00;;
14858;SDS011;7521;51.700;6.874;2023-03-23T18:19:01;7.63;;;3.13;;
14858;SDS011;7521;51.700;6.874;2023-03-23T18:22:06;11.27;;;3.53;;
14858;SDS011;7521;51.700;6.874;2023-03-23T18:25:11;9.93;;;2.97;;
14858;SDS011;7521;51.700;6.874;2023-03-23T18:28:17;9.93;;;3.40;;
14858;SDS011;7521;51.700;6.874;2023-03-23T18:31:22;6.45;;;3.25;;
14858;SDS011;7521;51.700;6.874;2023-03-23T18:34:27;5.90;;;3.67;;
14858;SDS011;7521;51.700;6.874;2023-03-23T18:37:32;7.83;;;3.43;;
14858;SDS011;7521;51.700;6.874;2023-03-23T18:40:42;6.10;;;3.13;;
14858;SDS011;7521;51.700;6.874;2023-03-23T18:43:47;7.20;;;3.43;;
14858;SDS011;7521;51.700;6.874;2023-03-23T18:46:53;6.70;;;3.28;;
14858;SDS011;7521;51.700;6.874;2023-03-23T18:49:58;8.00;;;3.40;;
14858;SDS011;7521;51.700;6.874;2023-03-23T18:53:03;9.00;;;3.57;;
14858;SDS011;7521;51.700;6.874;2023-03-23T18:56:12;10.63;;;3.10;;
14858;SDS011;7521;51.700;6.874;2023-03-23T18:59:17;10.63;;;3.57;;
14858;SDS011;7521;51.700;6.874;2023-03-23T19:02:22;10.20;;;3.42;;
14858;SDS011;7521;51.700;6.874;2023-03-23T19:05:27;11.02;;;4.03;;
14858;SDS011;7521;51.700;6.874;2023-03-23T19:08:33;10.47;;;3.97;;
14858;SDS011;7521;51.700;6.874;2023-03-23T19:11:41;8.00;;;3.30;;
14858;SDS011;7521;51.700;6.874;2023-03-23T19:14:46;8.83;;;3.70;;
14858;SDS011;7521;51.700;6.874;2023-03-23T19:17:51;9.05;;;3.45;;
14858;SDS011;7521;51.700;6.874;2023-03-23T19:20:59;7.37;;;3.13;;
14858;SDS011;7521;51.700;6.874;2023-03-23T19:24:05;8.40;;;3.37;;
14858;SDS011;7521;51.700;6.874;2023-03-23T19:27:11;8.17;;;3.40;;
14858;SDS011;7521;51.700;6.874;2023-03-23T19:30:16;8.18;;;2.78;;
14858;SDS011;7521;51.700;6.874;2023-03-23T19:33:21;7.65;;;2.70;;
14858;SDS011;7521;51.700;6.874;2023-03-23T19:36:27;8.50;;;2.53;;
14858;SDS011;7521;51.700;6.874;2023-03-23T19:39:32;8.20;;;2.53;;
14858;SDS011;7521;51.700;6.874;2023-03-23T19:42:38;8.43;;;2.63;;
14858;SDS011;7521;51.700;6.874;2023-03-23T19:45:43;4.77;;;2.27;;
14858;SDS011;7521;51.700;6.874;2023-03-23T19:48:48;7.60;;;2.17;;
14858;SDS011;7521;51.700;6.874;2023-03-23T19:51:54;7.57;;;2.70;;
14858;SDS011;7521;51.700;6.874;2023-03-23T19:54:59;7.93;;;2.30;;
14858;SDS011;7521;51.700;6.874;2023-03-23T19:58:05;9.30;;;2.40;;
14858;SDS011;7521;51.700;6.874;2023-03-23T20:01:10;5.07;;;2.47;;
14858;SDS011;7521;51.700;6.874;2023-03-23T20:04:15;5.60;;;2.30;;
14858;SDS011;7521;51.700;6.874;2023-03-23T20:07:22;7.53;;;2.80;;
14858;SDS011;7521;51.700;6.874;2023-03-23T20:10:27;6.25;;;2.22;;
14858;SDS011;7521;51.700;6.874;2023-03-23T20:13:33;7.53;;;2.10;;
14858;SDS011;7521;51.700;6.874;2023-03-23T20:16:40;8.60;;;2.80;;
14858;SDS011;7521;51.700;6.874;2023-03-23T20:19:45;4.33;;;2.23;;
14858;SDS011;7521;51.700;6.874;2023-03-23T20:22:50;7.67;;;2.20;;
14858;SDS011;7521;51.700;6.874;2023-03-23T20:25:56;6.63;;;2.72;;
14858;SDS011;7521;51.700;6.874;2023-03-23T20:29:02;7.80;;;2.40;;
14858;SDS011;7521;51.700;6.874;2023-03-23T20:32:07;4.70;;;2.00;;
14858;SDS011;7521;51.700;6.874;2023-03-23T20:35:13;6.33;;;2.27;;
14858;SDS011;7521;51.700;6.874;2023-03-23T20:38:18;5.43;;;2.13;;
14858;SDS011;7521;51.700;6.874;2023-03-23T20:41:23;8.48;;;2.70;;